PAS15 WAEE-WAPP
Flight info
| Callsign | PAS15 |
|---|---|
| Flight time | 0h 48m |
| Altitude | 29000 |
| Route | KUPAL DCT BELBA |
| Aircraft | A320/M-SDE3FGHIRWY/LB1 |
Departure
| Time | 2026-04-23 05:37 |
|---|---|
| Airport | Sultan Babullah Airport (WAEE) |
Arrival
| Time | 2026-04-23 06:26 |
|---|---|
| Airport | Pattimura International Airport (WAPP) |
| Time | Latitude | Longitude | Altitude | Speed | Heading |
|---|---|---|---|---|---|
| 2026-04-23 05:27 | 0.83372 | 127.37749 | 57 ft | 0 kts | 231° |
| 2026-04-23 05:28 | 0.83374 | 127.37752 | 57 ft | 1 kts | 232° |
| 2026-04-23 05:28 | 0.83385 | 127.37761 | 57 ft | 2 kts | 195° |
| 2026-04-23 05:28 | 0.83400 | 127.37762 | 57 ft | 2 kts | 161° |
| 2026-04-23 05:29 | 0.83408 | 127.37758 | 57 ft | 1 kts | 141° |
| 2026-04-23 05:29 | 0.83413 | 127.37753 | 57 ft | 0 kts | 140° |
| 2026-04-23 05:31 | 0.83413 | 127.37754 | 57 ft | 0 kts | 140° |
| 2026-04-23 05:31 | 0.83400 | 127.37764 | 57 ft | 4 kts | 142° |
| 2026-04-23 05:32 | 0.83386 | 127.37786 | 57 ft | 5 kts | 80° |
| 2026-04-23 05:32 | 0.83402 | 127.37815 | 57 ft | 2 kts | 51° |
| 2026-04-23 05:32 | 0.83408 | 127.37821 | 57 ft | 0 kts | 51° |
| 2026-04-23 05:32 | 0.83419 | 127.37836 | 57 ft | 5 kts | 51° |
| 2026-04-23 05:33 | 0.83441 | 127.37865 | 57 ft | 7 kts | 66° |
| 2026-04-23 05:33 | 0.83410 | 127.37921 | 57 ft | 12 kts | 143° |
| 2026-04-23 05:33 | 0.83331 | 127.37985 | 57 ft | 16 kts | 142° |
| 2026-04-23 05:33 | 0.83230 | 127.38065 | 57 ft | 20 kts | 140° |
| 2026-04-23 05:34 | 0.83105 | 127.38165 | 57 ft | 24 kts | 142° |
| 2026-04-23 05:34 | 0.82964 | 127.38279 | 57 ft | 28 kts | 140° |
| 2026-04-23 05:34 | 0.82815 | 127.38400 | 57 ft | 28 kts | 140° |
| 2026-04-23 05:34 | 0.82653 | 127.38529 | 57 ft | 31 kts | 141° |
| 2026-04-23 05:35 | 0.82485 | 127.38664 | 57 ft | 30 kts | 141° |
| 2026-04-23 05:35 | 0.82402 | 127.38754 | 57 ft | 14 kts | 112° |
| 2026-04-23 05:35 | 0.82359 | 127.38771 | 57 ft | 5 kts | 258° |
| 2026-04-23 05:35 | 0.82374 | 127.38753 | 57 ft | 3 kts | 317° |
| 2026-04-23 05:36 | 0.82387 | 127.38742 | 57 ft | 4 kts | 323° |
| 2026-04-23 05:36 | 0.82440 | 127.38702 | 57 ft | 33 kts | 321° |
| 2026-04-23 05:37 | 0.82833 | 127.38384 | 57 ft | 109 kts | 321° |
| 2026-04-23 05:37 | 0.83594 | 127.37774 | 58 ft | 168 kts | 321° |
| 2026-04-23 05:37 | 0.84546 | 127.36998 | 523 ft | 181 kts | 322° |
| 2026-04-23 05:37 | 0.85622 | 127.36366 | 1195 ft | 184 kts | 348° |
| 2026-04-23 05:38 | 0.86889 | 127.36247 | 1985 ft | 182 kts | 0° |
| 2026-04-23 05:38 | 0.88166 | 127.36227 | 2532 ft | 191 kts | 0° |
| 2026-04-23 05:38 | 0.89538 | 127.36180 | 2992 ft | 206 kts | 359° |
| 2026-04-23 05:38 | 0.91016 | 127.36100 | 3435 ft | 224 kts | 358° |
| 2026-04-23 05:39 | 0.92659 | 127.35992 | 3845 ft | 246 kts | 357° |
| 2026-04-23 05:39 | 0.94390 | 127.35866 | 4677 ft | 251 kts | 357° |
| 2026-04-23 05:39 | 0.96109 | 127.35736 | 5558 ft | 253 kts | 357° |
| 2026-04-23 05:39 | 0.97867 | 127.35562 | 6401 ft | 259 kts | 349° |
| 2026-04-23 05:40 | 0.99537 | 127.34759 | 6918 ft | 281 kts | 319° |
| 2026-04-23 05:40 | 1.00632 | 127.33113 | 7610 ft | 294 kts | 288° |
| 2026-04-23 05:40 | 1.00844 | 127.31106 | 8529 ft | 297 kts | 269° |
| 2026-04-23 05:40 | 1.00788 | 127.29037 | 9452 ft | 300 kts | 268° |
| 2026-04-23 05:41 | 1.00725 | 127.26945 | 10302 ft | 305 kts | 269° |
| 2026-04-23 05:41 | 1.00678 | 127.24769 | 10903 ft | 320 kts | 269° |
| 2026-04-23 05:41 | 1.00646 | 127.22482 | 11356 ft | 339 kts | 269° |
| 2026-04-23 05:41 | 1.00330 | 127.20088 | 11738 ft | 358 kts | 251° |
| 2026-04-23 05:42 | 0.98954 | 127.17770 | 12321 ft | 369 kts | 225° |
| 2026-04-23 05:42 | 0.96631 | 127.16219 | 13203 ft | 368 kts | 198° |
| 2026-04-23 05:42 | 0.93893 | 127.15800 | 14105 ft | 366 kts | 175° |
| 2026-04-23 05:42 | 0.91072 | 127.16040 | 15007 ft | 368 kts | 171° |
| 2026-04-23 05:43 | 0.88285 | 127.16358 | 15789 ft | 374 kts | 171° |
| 2026-04-23 05:43 | 0.85414 | 127.16672 | 16600 ft | 379 kts | 172° |
| 2026-04-23 05:43 | 0.82529 | 127.16962 | 17394 ft | 383 kts | 172° |
| 2026-04-23 05:43 | 0.79589 | 127.17239 | 18177 ft | 387 kts | 172° |
| 2026-04-23 05:44 | 0.76664 | 127.17505 | 18921 ft | 391 kts | 172° |
| 2026-04-23 05:44 | 0.73658 | 127.17772 | 19655 ft | 395 kts | 172° |
| 2026-04-23 05:44 | 0.70666 | 127.18035 | 20358 ft | 399 kts | 173° |
| 2026-04-23 05:44 | 0.67613 | 127.18301 | 21049 ft | 403 kts | 173° |
| 2026-04-23 05:45 | 0.64531 | 127.18568 | 21721 ft | 406 kts | 172° |
| 2026-04-23 05:45 | 0.61431 | 127.18838 | 22376 ft | 410 kts | 172° |
| 2026-04-23 05:45 | 0.58294 | 127.19111 | 23005 ft | 414 kts | 173° |
| 2026-04-23 05:45 | 0.55111 | 127.19387 | 23618 ft | 417 kts | 173° |
| 2026-04-23 05:46 | 0.51928 | 127.19664 | 24210 ft | 421 kts | 173° |
| 2026-04-23 05:46 | 0.48698 | 127.19945 | 24777 ft | 424 kts | 173° |
| 2026-04-23 05:46 | 0.45465 | 127.20226 | 25317 ft | 428 kts | 173° |
| 2026-04-23 05:46 | 0.42216 | 127.20508 | 25838 ft | 431 kts | 173° |
| 2026-04-23 05:47 | 0.38931 | 127.20792 | 26344 ft | 434 kts | 173° |
| 2026-04-23 05:47 | 0.35592 | 127.21081 | 26963 ft | 434 kts | 173° |
| 2026-04-23 05:47 | 0.32312 | 127.21365 | 27627 ft | 433 kts | 173° |
| 2026-04-23 05:47 | 0.29037 | 127.21649 | 28170 ft | 434 kts | 174° |
| 2026-04-23 05:48 | 0.25701 | 127.21939 | 28642 ft | 437 kts | 174° |
| 2026-04-23 05:48 | 0.22378 | 127.22227 | 28843 ft | 440 kts | 174° |
| 2026-04-23 05:48 | 0.18977 | 127.22522 | 28847 ft | 451 kts | 174° |
| 2026-04-23 05:48 | 0.15516 | 127.22823 | 28853 ft | 462 kts | 174° |
| 2026-04-23 05:49 | 0.11945 | 127.23132 | 28854 ft | 472 kts | 174° |
| 2026-04-23 05:49 | 0.04635 | 127.23766 | 28853 ft | 483 kts | 174° |
| 2026-04-23 05:50 | -0.02696 | 127.24400 | 28852 ft | 484 kts | 174° |
| 2026-04-23 05:50 | -0.10079 | 127.25042 | 28848 ft | 483 kts | 174° |
| 2026-04-23 05:51 | -0.17444 | 127.25679 | 28839 ft | 483 kts | 174° |
| 2026-04-23 05:51 | -0.24823 | 127.26318 | 28830 ft | 484 kts | 174° |
| 2026-04-23 05:52 | -0.32162 | 127.26957 | 28827 ft | 483 kts | 174° |
| 2026-04-23 05:52 | -0.39529 | 127.27599 | 28826 ft | 483 kts | 174° |
| 2026-04-23 05:53 | -0.46869 | 127.28241 | 28826 ft | 483 kts | 174° |
| 2026-04-23 05:53 | -0.54262 | 127.28890 | 28826 ft | 483 kts | 174° |
| 2026-04-23 05:54 | -0.61607 | 127.29457 | 28825 ft | 484 kts | 176° |
| 2026-04-23 05:54 | -0.68995 | 127.29538 | 28826 ft | 484 kts | 179° |
| 2026-04-23 05:55 | -0.76361 | 127.29552 | 28826 ft | 484 kts | 178° |
| 2026-04-23 05:55 | -0.83778 | 127.29578 | 28826 ft | 484 kts | 178° |
| 2026-04-23 05:56 | -0.91170 | 127.29611 | 28826 ft | 484 kts | 178° |
| 2026-04-23 05:56 | -0.98552 | 127.29647 | 28826 ft | 484 kts | 178° |
| 2026-04-23 05:57 | -1.05969 | 127.29684 | 28826 ft | 484 kts | 178° |
| 2026-04-23 05:57 | -1.13374 | 127.29720 | 28826 ft | 484 kts | 178° |
| 2026-04-23 05:58 | -1.20771 | 127.29755 | 28826 ft | 484 kts | 178° |
| 2026-04-23 05:58 | -1.28131 | 127.29790 | 28825 ft | 484 kts | 178° |
| 2026-04-23 05:59 | -1.35529 | 127.29826 | 28826 ft | 484 kts | 178° |
| 2026-04-23 05:59 | -1.42904 | 127.29862 | 28826 ft | 484 kts | 178° |
| 2026-04-23 06:00 | -1.50322 | 127.29899 | 28826 ft | 483 kts | 178° |
| 2026-04-23 06:00 | -1.57682 | 127.29935 | 28826 ft | 483 kts | 178° |
| 2026-04-23 06:01 | -1.65091 | 127.29974 | 28826 ft | 483 kts | 178° |
| 2026-04-23 06:01 | -1.72470 | 127.30010 | 28826 ft | 483 kts | 178° |
| 2026-04-23 06:02 | -1.79888 | 127.30047 | 28825 ft | 483 kts | 178° |
| 2026-04-23 06:02 | -1.87267 | 127.30084 | 28826 ft | 483 kts | 178° |
| 2026-04-23 06:03 | -1.94656 | 127.30122 | 28826 ft | 483 kts | 178° |
| 2026-04-23 06:03 | -2.02061 | 127.30161 | 28826 ft | 483 kts | 178° |
| 2026-04-23 06:04 | -2.09423 | 127.30203 | 28826 ft | 482 kts | 178° |
| 2026-04-23 06:04 | -2.16790 | 127.30245 | 28826 ft | 482 kts | 178° |
| 2026-04-23 06:05 | -2.24149 | 127.30540 | 28826 ft | 481 kts | 173° |
| 2026-04-23 06:05 | -2.31433 | 127.31467 | 28826 ft | 480 kts | 170° |
| 2026-04-23 06:06 | -2.38675 | 127.32484 | 28826 ft | 480 kts | 170° |
| 2026-04-23 06:06 | -2.45967 | 127.33500 | 28826 ft | 480 kts | 170° |
| 2026-04-23 06:07 | -2.52881 | 127.34456 | 28826 ft | 480 kts | 170° |
| 2026-04-23 06:07 | -2.56485 | 127.34952 | 28652 ft | 467 kts | 170° |
| 2026-04-23 06:07 | -2.59970 | 127.35432 | 28372 ft | 453 kts | 170° |
| 2026-04-23 06:07 | -2.63342 | 127.35897 | 28092 ft | 440 kts | 170° |
| 2026-04-23 06:08 | -2.66649 | 127.36355 | 27807 ft | 430 kts | 170° |
| 2026-04-23 06:08 | -2.69918 | 127.36809 | 27358 ft | 430 kts | 170° |
| 2026-04-23 06:08 | -2.73156 | 127.37259 | 26707 ft | 431 kts | 170° |
| 2026-04-23 06:08 | -2.76403 | 127.37710 | 25963 ft | 431 kts | 171° |
| 2026-04-23 06:09 | -2.79660 | 127.38161 | 25419 ft | 427 kts | 171° |
| 2026-04-23 06:09 | -2.82869 | 127.38605 | 24856 ft | 423 kts | 171° |
| 2026-04-23 06:09 | -2.86038 | 127.39043 | 24288 ft | 420 kts | 171° |
| 2026-04-23 06:09 | -2.89217 | 127.39483 | 23713 ft | 417 kts | 171° |
| 2026-04-23 06:10 | -2.92351 | 127.39917 | 23156 ft | 413 kts | 171° |
| 2026-04-23 06:10 | -2.95461 | 127.40348 | 22617 ft | 410 kts | 171° |
| 2026-04-23 06:10 | -2.98532 | 127.40775 | 22086 ft | 406 kts | 171° |
| 2026-04-23 06:10 | -3.01603 | 127.41200 | 21553 ft | 403 kts | 171° |
| 2026-04-23 06:11 | -3.04649 | 127.41621 | 21018 ft | 399 kts | 171° |
| 2026-04-23 06:11 | -3.07676 | 127.42037 | 20479 ft | 396 kts | 171° |
| 2026-04-23 06:11 | -3.10625 | 127.42440 | 19953 ft | 393 kts | 171° |
| 2026-04-23 06:11 | -3.13601 | 127.42846 | 19422 ft | 389 kts | 171° |
| 2026-04-23 06:12 | -3.16531 | 127.43248 | 18897 ft | 386 kts | 171° |
| 2026-04-23 06:12 | -3.19450 | 127.43650 | 18373 ft | 382 kts | 171° |
| 2026-04-23 06:12 | -3.25158 | 127.44441 | 17339 ft | 376 kts | 171° |
| 2026-04-23 06:13 | -3.28014 | 127.44839 | 16803 ft | 374 kts | 171° |
| 2026-04-23 06:13 | -3.30811 | 127.45227 | 16270 ft | 371 kts | 171° |
| 2026-04-23 06:13 | -3.33634 | 127.45618 | 15733 ft | 369 kts | 171° |
| 2026-04-23 06:13 | -3.36403 | 127.46043 | 15180 ft | 366 kts | 166° |
| 2026-04-23 06:14 | -3.39003 | 127.47042 | 14632 ft | 362 kts | 148° |
| 2026-04-23 06:14 | -3.41179 | 127.48715 | 14111 ft | 357 kts | 135° |
| 2026-04-23 06:14 | -3.43103 | 127.50633 | 13582 ft | 355 kts | 133° |
| 2026-04-23 06:14 | -3.44985 | 127.52571 | 13061 ft | 353 kts | 133° |
| 2026-04-23 06:15 | -3.46856 | 127.54484 | 12550 ft | 351 kts | 133° |
| 2026-04-23 06:15 | -3.48742 | 127.56390 | 12036 ft | 349 kts | 133° |
| 2026-04-23 06:15 | -3.50601 | 127.58254 | 11533 ft | 346 kts | 134° |
| 2026-04-23 06:15 | -3.52479 | 127.60129 | 11029 ft | 344 kts | 134° |
| 2026-04-23 06:16 | -3.54334 | 127.61976 | 10534 ft | 342 kts | 134° |
| 2026-04-23 06:16 | -3.56167 | 127.63799 | 10253 ft | 332 kts | 134° |
| 2026-04-23 06:16 | -3.57946 | 127.65569 | 10134 ft | 317 kts | 134° |
| 2026-04-23 06:16 | -3.59632 | 127.67256 | 10030 ft | 304 kts | 134° |
| 2026-04-23 06:17 | -3.61238 | 127.68864 | 9994 ft | 288 kts | 134° |
| 2026-04-23 06:17 | -3.62814 | 127.70313 | 9946 ft | 275 kts | 139° |
| 2026-04-23 06:17 | -3.64466 | 127.71636 | 9417 ft | 279 kts | 141° |
| 2026-04-23 06:17 | -3.66166 | 127.72952 | 8943 ft | 281 kts | 142° |
| 2026-04-23 06:18 | -3.67860 | 127.74258 | 8506 ft | 280 kts | 142° |
| 2026-04-23 06:18 | -3.69545 | 127.75560 | 8193 ft | 276 kts | 142° |
| 2026-04-23 06:18 | -3.71206 | 127.76847 | 7878 ft | 271 kts | 142° |
| 2026-04-23 06:18 | -3.72829 | 127.78108 | 7571 ft | 267 kts | 142° |
| 2026-04-23 06:19 | -3.74426 | 127.79349 | 7270 ft | 263 kts | 142° |
| 2026-04-23 06:19 | -3.76006 | 127.80579 | 6975 ft | 259 kts | 142° |
| 2026-04-23 06:19 | -3.77549 | 127.81780 | 6678 ft | 255 kts | 142° |
| 2026-04-23 06:19 | -3.79105 | 127.82992 | 6328 ft | 254 kts | 142° |
| 2026-04-23 06:20 | -3.80633 | 127.84181 | 5964 ft | 253 kts | 142° |
| 2026-04-23 06:20 | -3.82160 | 127.85369 | 5614 ft | 252 kts | 142° |
| 2026-04-23 06:20 | -3.83676 | 127.86550 | 5270 ft | 251 kts | 142° |
| 2026-04-23 06:20 | -3.85195 | 127.87731 | 4926 ft | 250 kts | 142° |
| 2026-04-23 06:21 | -3.86681 | 127.88917 | 4632 ft | 246 kts | 136° |
| 2026-04-23 06:21 | -3.87623 | 127.90504 | 4305 ft | 243 kts | 98° |
| 2026-04-23 06:21 | -3.87389 | 127.92276 | 3984 ft | 237 kts | 59° |
| 2026-04-23 06:21 | -3.86301 | 127.93693 | 3714 ft | 231 kts | 46° |
| 2026-04-23 06:22 | -3.85117 | 127.95002 | 3393 ft | 231 kts | 45° |
| 2026-04-23 06:22 | -3.83856 | 127.96247 | 3071 ft | 229 kts | 41° |
| 2026-04-23 06:22 | -3.82605 | 127.97446 | 2768 ft | 224 kts | 43° |
| 2026-04-23 06:22 | -3.81416 | 127.98617 | 2497 ft | 207 kts | 43° |
| 2026-04-23 06:23 | -3.80317 | 127.99713 | 2395 ft | 197 kts | 44° |
| 2026-04-23 06:23 | -3.79284 | 128.00745 | 2133 ft | 186 kts | 44° |
| 2026-04-23 06:23 | -3.78292 | 128.01732 | 1828 ft | 177 kts | 44° |
| 2026-04-23 06:23 | -3.77357 | 128.02664 | 1544 ft | 169 kts | 44° |
| 2026-04-23 06:24 | -3.76464 | 128.03552 | 1296 ft | 159 kts | 44° |
| 2026-04-23 06:24 | -3.75625 | 128.04387 | 1093 ft | 148 kts | 45° |
| 2026-04-23 06:24 | -3.74838 | 128.05171 | 879 ft | 146 kts | 45° |
| 2026-04-23 06:24 | -3.74040 | 128.05953 | 647 ft | 146 kts | 45° |
| 2026-04-23 06:25 | -3.73256 | 128.06743 | 451 ft | 145 kts | 46° |
| 2026-04-23 06:25 | -3.72465 | 128.07529 | 210 ft | 145 kts | 45° |
| 2026-04-23 06:25 | -3.71675 | 128.08311 | 59 ft | 144 kts | 46° |
| 2026-04-23 06:25 | -3.70960 | 128.09038 | 42 ft | 117 kts | 41° |
| 2026-04-23 06:26 | -3.70463 | 128.09532 | 42 ft | 54 kts | 44° |
| 2026-04-23 06:26 | -3.70295 | 128.09688 | 42 ft | 17 kts | 26° |
| 2026-04-23 06:26 | -3.70235 | 128.09721 | 42 ft | 5 kts | 70° |
| 2026-04-23 06:26 | -3.70262 | 128.09743 | 42 ft | 6 kts | 207° |
| 2026-04-23 06:27 | -3.70303 | 128.09700 | 42 ft | 9 kts | 230° |
| 2026-04-23 06:27 | -3.70361 | 128.09634 | 42 ft | 13 kts | 226° |
| 2026-04-23 06:27 | -3.70444 | 128.09551 | 42 ft | 16 kts | 224° |
| 2026-04-23 06:27 | -3.70537 | 128.09457 | 42 ft | 16 kts | 224° |
| 2026-04-23 06:28 | -3.70628 | 128.09369 | 42 ft | 15 kts | 225° |
| 2026-04-23 06:28 | -3.70705 | 128.09290 | 42 ft | 12 kts | 225° |
| 2026-04-23 06:28 | -3.70777 | 128.09218 | 42 ft | 12 kts | 224° |
| 2026-04-23 06:28 | -3.70787 | 128.09160 | 42 ft | 7 kts | 297° |
| 2026-04-23 06:29 | -3.70763 | 128.09132 | 42 ft | 4 kts | 314° |
| 2026-04-23 06:29 | -3.70723 | 128.09091 | 42 ft | 10 kts | 313° |
| 2026-04-23 06:29 | -3.70697 | 128.09013 | 42 ft | 11 kts | 270° |
| 2026-04-23 06:29 | -3.70697 | 128.08928 | 42 ft | 9 kts | 270° |
| 2026-04-23 06:30 | -3.70697 | 128.08873 | 42 ft | 4 kts | 270° |
| 2026-04-23 06:30 | -3.70688 | 128.08855 | 42 ft | 3 kts | 338° |
| 2026-04-23 06:30 | -3.70659 | 128.08852 | 42 ft | 3 kts | 1° |
| 2026-04-23 06:30 | -3.70632 | 128.08853 | 42 ft | 2 kts | 0° |
| 2026-04-23 06:31 | -3.70627 | 128.08853 | 42 ft | 0 kts | 0° |